Time;durP1;ratioP1;P1;durP2;ratioP2;P2;SDS_P1;SDS_P2;PMS_P1;PMS_P2;Temp;Humidity;BMP_temperature;BMP_pressure;BME280_temperature;BME280_humidity;BME280_pressure;Samples;Min_cycle;Max_cycle;Signal;HPM_P1;HPM_P2
2023/05/28 00:00:56;;;;;;;3.53;1.80;;;;;;;;;;4974629;28;20109;-82
2023/05/28 00:03:23;;;;;;;3.63;1.90;;;22.80;56.10;;;;;;4974703;28;20054;-82
2023/05/28 00:05:50;;;;;;;4.10;2.00;;;;;;;;;;4974875;28;20046;-82
2023/05/28 00:08:16;;;;;;;3.83;1.75;;;;;;;;;;4974436;28;20031;-82
2023/05/28 00:10:43;;;;;;;2.78;1.88;;;;;;;;;;4974881;28;20114;-83
2023/05/28 00:13:09;;;;;;;2.55;1.85;;;;;;;;;;4974377;28;20516;-82
2023/05/28 00:15:36;;;;;;;4.75;1.83;;;;;;;;;;4974793;28;20028;-82
2023/05/28 00:18:03;;;;;;;2.90;1.70;;;;;;;;;;4974622;28;20070;-82
2023/05/28 00:20:30;;;;;;;2.40;1.63;;;;;;;;;;4974371;28;20094;-83
2023/05/28 00:22:56;;;;;;;4.38;1.83;;;;;;;;;;4974550;28;20031;-82
2023/05/28 00:25:23;;;;;;;3.45;1.92;;;;;;;;;;4974391;28;20042;-82
2023/05/28 00:27:49;;;;;;;5.22;1.90;;;;;;;;;;4974446;28;20093;-82
2023/05/28 00:30:16;;;;;;;5.65;1.83;;;;;;;;;;4974155;28;20027;-81
2023/05/28 00:32:42;;;;;;;3.08;1.60;;;;;;;;;;4974432;28;20044;-83
2023/05/28 00:35:09;;;;;;;3.35;1.50;;;;;;;;;;4974267;28;20397;-82
2023/05/28 00:37:35;;;;;;;5.28;1.98;;;;;;;;;;4974482;28;20031;-82
2023/05/28 00:40:02;;;;;;;2.03;1.58;;;;;;;;;;4974426;28;20109;-82
2023/05/28 00:42:28;;;;;;;3.13;2.13;;;;;;;;;;4974560;28;20370;-82
2023/05/28 00:44:54;;;;;;;3.58;1.98;;;;;;;;;;4974213;28;20023;-81
2023/05/28 00:47:21;;;;;;;2.67;1.75;;;;;;;;;;4974234;28;20105;-81
2023/05/28 00:49:48;;;;;;;4.15;2.15;;;;;;;;;;4974148;28;20035;-83
2023/05/28 00:52:14;;;;;;;2.88;1.90;;;;;;;;;;4973780;28;20030;-82
2023/05/28 00:54:40;;;;;;;2.58;1.80;;;;;;;;;;4973674;28;20453;-83
2023/05/28 00:57:06;;;;;;;2.22;1.60;;;;;;;;;;4973685;28;20039;-82
2023/05/28 00:59:36;;;;;;;3.25;2.13;;;22.50;57.40;;;;;;4973885;28;20051;-83
2023/05/28 01:02:02;;;;;;;4.40;2.13;;;;;;;;;;4977281;28;20426;-82
2023/05/28 01:04:31;;;;;;;2.50;1.55;;;;;;;;;;4976743;28;20106;-81
2023/05/28 01:06:57;;;;;;;2.75;1.85;;;;;;;;;;4958546;28;20479;-82
2023/05/28 01:09:23;;;;;;;2.45;1.20;;;22.50;57.00;;;;;;4973553;28;20034;-82
2023/05/28 01:11:52;;;;;;;1.55;1.40;;;22.40;57.70;;;;;;4973647;28;20508;-82
2023/05/28 01:14:22;;;;;;;4.15;1.98;;;22.40;57.70;;;;;;4973457;28;20038;-83
2023/05/28 01:16:48;;;;;;;3.38;1.80;;;;;;;;;;4973769;28;20114;-82
2023/05/28 01:19:18;;;;;;;1.73;1.33;;;22.40;57.80;;;;;;4973543;28;20669;-82
2023/05/28 01:21:45;;;;;;;;;;;22.40;58.80;;;;;;4956374;28;20026;-82
2023/05/28 01:24:13;;;;;;;3.30;1.42;;;22.40;55.10;;;;;;4973552;28;19913;-81
2023/05/28 01:26:40;;;;;;;2.33;1.45;;;22.40;56.30;;;;;;4973909;28;20089;-81
2023/05/28 01:29:16;;;;;;;2.83;1.65;;;22.30;52.60;;;;;;4973517;28;20034;-81
2023/05/28 01:31:43;;;;;;;3.42;1.70;;;;;;;;;;4973842;28;20129;-81
2023/05/28 01:34:10;;;;;;;3.40;1.40;;;22.30;58.20;;;;;;4955968;28;20584;-81
2023/05/28 01:36:46;;;;;;;2.70;1.80;;;22.30;58.00;;;;;;4973333;28;20474;-82
2023/05/28 01:39:16;;;;;;;2.40;1.50;;;22.30;58.30;;;;;;4973557;28;20033;-81
2023/05/28 01:41:45;;;;;;;;;;;22.30;59.20;;;;;;4973880;28;20042;-82
2023/05/28 01:44:18;;;;;;;1.55;1.40;;;22.20;58.40;;;;;;4973716;28;19961;-81
2023/05/28 01:46:46;;;;;;;2.92;1.60;;;22.20;58.30;;;;;;4973555;28;20023;-81
2023/05/28 01:49:13;;;;;;;4.05;1.60;;;;;;;;;;4973478;28;20018;-81
2023/05/28 01:51:39;;;;;;;2.50;1.52;;;;;;;;;;4973514;28;20052;-82
2023/05/28 01:54:06;;;;;;;3.08;1.90;;;;;;;;;;4973455;28;20102;-81
2023/05/28 01:56:32;;;;;;;3.83;1.75;;;;;;;;;;4973423;28;20363;-82
2023/05/28 01:58:59;;;;;;;3.85;1.60;;;;;;;;;;4973407;28;20027;-81
2023/05/28 02:01:30;;;;;;;4.25;1.60;;;22.20;53.50;;;;;;4973319;28;20027;-81
2023/05/28 02:03:57;;;;;;;5.10;1.75;;;22.20;58.90;;;;;;4973252;28;20050;-81
2023/05/28 02:06:24;;;;;;;2.58;1.48;;;22.10;58.50;;;;;;4973147;28;20019;-81
2023/05/28 02:08:52;;;;;;;3.30;1.75;;;;;;;;;;4973631;28;20019;-82
2023/05/28 02:11:18;;;;;;;2.78;1.88;;;;;;;;;;4973560;28;20027;-82
2023/05/28 02:13:46;;;;;;;2.42;1.48;;;;;;;;;;4973459;28;20039;-82
2023/05/28 02:16:17;;;;;;;3.33;1.48;;;;;;;;;;4973532;28;20098;-82
2023/05/28 02:18:50;;;;;;;3.20;1.60;;;22.10;58.90;;;;;;4973213;28;20027;-82
2023/05/28 02:21:17;;;;;;;3.33;1.85;;;22.00;58.50;;;;;;4973147;28;20114;-82
2023/05/28 02:23:45;;;;;;;2.13;1.42;;;22.10;58.60;;;;;;4973270;28;20162;-82
2023/05/28 02:26:11;;;;;;;4.40;1.90;;;;;;;;;;4973033;28;20151;-82
2023/05/28 02:28:37;;;;;;;3.83;1.75;;;;;;;;;;4972914;28;20523;-82
2023/05/28 02:31:03;;;;;;;2.78;1.60;;;;;;;;;;4973052;28;20026;-81
2023/05/28 02:33:29;;;;;;;3.15;1.70;;;;;;;;;;4976125;28;20034;-81
2023/05/28 02:35:55;;;;;;;2.75;1.60;;;;;;;;;;4959080;28;20031;-82
2023/05/28 02:38:21;;;;;;;2.97;1.60;;;;;;;;;;4976451;28;20041;-82
2023/05/28 02:40:47;;;;;;;2.78;1.38;;;;;;;;;;4976289;28;20030;-82
2023/05/28 02:43:13;;;;;;;2.63;1.40;;;;;;;;;;4976126;28;20445;-82
2023/05/28 02:45:39;;;;;;;3.95;1.52;;;;;;;;;;4976140;28;20097;-83
2023/05/28 02:48:05;;;;;;;3.15;1.58;;;;;;;;;;4975999;28;20037;-82
2023/05/28 02:50:31;;;;;;;2.25;1.20;;;;;;;;;;4976109;28;20027;-82
2023/05/28 02:52:57;;;;;;;2.92;1.17;;;;;;;;;;4976004;28;20034;-82
2023/05/28 02:55:23;;;;;;;1.65;1.20;;;;;;;;;;4976064;28;20039;-82
2023/05/28 02:57:52;;;;;;;3.92;1.73;;;;;;;;;;4976180;28;20035;-81
2023/05/28 03:00:19;;;;;;;2.47;1.30;;;;;;;;;;4976145;28;20035;-81
2023/05/28 03:02:45;;;;;;;2.97;1.92;;;;;;;;;;4975597;28;20470;-82
2023/05/28 03:05:11;;;;;;;2.70;1.55;;;;;;;;;;4975753;28;20053;-81
2023/05/28 03:07:37;;;;;;;3.53;1.77;;;;;;;;;;4975712;28;20030;-82
2023/05/28 03:10:04;;;;;;;2.55;1.52;;;21.80;59.10;;;;;;4975689;28;20038;-81
2023/05/28 03:12:30;;;;;;;3.63;1.63;;;;;;;;;;4958422;28;20437;-82
2023/05/28 03:14:56;;;;;;;2.58;1.48;;;;;;;;;;4975789;28;20489;-82
2023/05/28 03:17:23;;;;;;;2.35;1.50;;;;;;;;;;4975763;28;20050;-81
2023/05/28 03:19:49;;;;;;;2.63;1.60;;;;;;;;;;4975386;28;20398;-81
2023/05/28 03:22:15;;;;;;;2.88;1.60;;;;;;;;;;4975563;28;20030;-81
2023/05/28 03:24:41;;;;;;;3.58;2.00;;;;;;;;;;4975513;28;20035;-82
2023/05/28 03:27:07;;;;;;;3.63;1.60;;;;;;;;;;4975641;28;20032;-81
2023/05/28 03:29:33;;;;;;;2.15;1.40;;;;;;;;;;4975306;28;20366;-81
2023/05/28 03:31:59;;;;;;;1.92;1.25;;;;;;;;;;4975246;28;20026;-81
2023/05/28 03:34:25;;;;;;;2.05;1.10;;;;;;;;;;4957942;28;20046;-81
2023/05/28 03:36:51;;;;;;;1.60;1.20;;;;;;;;;;4975240;28;20023;-81
2023/05/28 03:39:18;;;;;;;2.30;1.58;;;;;;;;;;4975302;28;20034;-82
2023/05/28 03:41:44;;;;;;;3.95;1.58;;;;;;;;;;4975113;28;20097;-81
2023/05/28 03:44:10;;;;;;;2.80;1.10;;;;;;;;;;4974663;28;20414;-81
2023/05/28 03:46:36;;;;;;;2.80;1.63;;;;;;;;;;4957638;28;20031;-82
2023/05/28 03:49:03;;;;;;;2.47;1.30;;;;;;;;;;4974992;28;20027;-81
2023/05/28 03:51:29;;;;;;;2.65;1.50;;;;;;;;;;4975030;28;20113;-82
2023/05/28 03:53:55;;;;;;;2.95;1.45;;;;;;;;;;4974764;28;20066;-82
2023/05/28 03:56:21;;;;;;;2.88;1.50;;;;;;;;;;4975083;28;20038;-81
2023/05/28 03:58:47;;;;;;;2.67;1.15;;;;;;;;;;4974769;28;20394;-81
2023/05/28 04:01:13;;;;;;;1.85;1.10;;;;;;;;;;4974765;28;20038;-82
2023/05/28 04:03:39;;;;;;;1.75;1.15;;;;;;;;;;4974449;28;20055;-82
2023/05/28 04:06:06;;;;;;;2.38;1.30;;;;;;;;;;4974759;28;20027;-81
2023/05/28 04:08:33;;;;;;;2.83;1.58;;;;;;;;;;4974601;28;20037;-81
2023/05/28 04:10:59;;;;;;;2.00;1.10;;;;;;;;;;4974436;28;20037;-81
2023/05/28 04:13:26;;;;;;;3.60;1.58;;;;;;;;;;4974732;28;20051;-82
2023/05/28 04:15:52;;;;;;;2.50;1.50;;;;;;;;;;4974657;28;20393;-81
2023/05/28 04:18:19;;;;;;;2.67;1.67;;;;;;;;;;4974370;28;20466;-81
2023/05/28 04:20:45;;;;;;;2.60;1.40;;;;;;;;;;4974714;28;20412;-82
2023/05/28 04:23:12;;;;;;;2.78;1.23;;;;;;;;;;4974447;28;20063;-81
2023/05/28 04:25:38;;;;;;;4.00;1.80;;;;;;;;;;4974531;28;20422;-82
2023/05/28 04:28:05;;;;;;;4.72;1.58;;;;;;;;;;4974528;28;20472;-81
2023/05/28 04:30:31;;;;;;;1.90;1.27;;;;;;;;;;4974573;28;20098;-81
2023/05/28 04:32:58;;;;;;;2.70;1.42;;;;;;;;;;4974197;28;20031;-81
2023/05/28 04:35:24;;;;;;;2.03;1.30;;;;;;;;;;4974179;28;20038;-81
2023/05/28 04:37:51;;;;;;;2.53;1.40;;;;;;;;;;4974523;28;20115;-81
2023/05/28 04:40:18;;;;;;;4.72;1.83;;;;;;;;;;4974382;28;20526;-81
2023/05/28 04:42:44;;;;;;;1.92;1.70;;;;;;;;;;4974384;28;20019;-81
2023/05/28 04:45:11;;;;;;;3.33;1.65;;;;;;;;;;4974280;28;20560;-81
2023/05/28 04:47:38;;;;;;;2.70;1.40;;;;;;;;;;4974045;28;20034;-81
2023/05/28 04:50:04;;;;;;;1.98;1.48;;;21.30;56.20;;;;;;4974113;28;20031;-81
2023/05/28 04:52:32;;;;;;;2.55;1.55;;;;;;;;;;4973845;28;20545;-82
2023/05/28 04:54:59;;;;;;;2.50;1.65;;;;;;;;;;4973442;28;20125;-82
2023/05/28 04:57:25;;;;;;;2.95;1.60;;;;;;;;;;4956792;28;20023;-81
2023/05/28 04:59:52;;;;;;;2.85;1.20;;;;;;;;;;4974104;28;20038;-82
2023/05/28 05:02:19;;;;;;;2.15;1.23;;;;;;;;;;4973777;28;20026;-81
2023/05/28 05:04:45;;;;;;;2.25;1.27;;;21.30;57.00;;;;;;4973697;28;20113;-81
2023/05/28 05:07:12;;;;;;;3.05;1.40;;;21.20;56.90;;;;;;4973692;28;20470;-78
2023/05/28 05:09:39;;;;;;;2.03;1.40;;;;;;;;;;4973877;28;20082;-78
2023/05/28 05:12:06;;;;;;;1.83;1.40;;;;;;;;;;4973725;28;20097;-79
2023/05/28 05:14:32;;;;;;;3.08;1.55;;;;;;;;;;4973842;28;20042;-79
2023/05/28 05:16:59;;;;;;;2.72;1.45;;;;;;;;;;4973945;28;20034;-78
2023/05/28 05:19:25;;;;;;;3.03;1.60;;;;;;;;;;4973709;28;20389;-78
2023/05/28 05:21:52;;;;;;;2.55;1.55;;;;;;;;;;4973494;28;20027;-79
2023/05/28 05:24:18;;;;;;;2.90;1.50;;;;;;;;;;4973568;28;20157;-82
2023/05/28 05:26:44;;;;;;;2.22;1.35;;;;;;;;;;4973478;28;20058;-82
2023/05/28 05:29:10;;;;;;;3.50;1.30;;;;;;;;;;4973568;28;20031;-82
2023/05/28 05:31:37;;;;;;;2.85;1.55;;;;;;;;;;4973610;28;20102;-82
2023/05/28 05:34:04;;;;;;;3.40;1.83;;;;;;;;;;4973535;28;20042;-82
2023/05/28 05:36:30;;;;;;;2.83;1.65;;;;;;;;;;4973630;28;20050;-82
2023/05/28 05:38:57;;;;;;;2.85;1.48;;;;;;;;;;4973702;28;20054;-83
2023/05/28 05:41:23;;;;;;;2.80;1.42;;;;;;;;;;4973792;28;20374;-83
2023/05/28 05:43:49;;;;;;;2.88;1.48;;;;;;;;;;4973587;28;20027;-82
2023/05/28 05:46:16;;;;;;;2.17;1.10;;;;;;;;;;4973414;28;20445;-82
2023/05/28 05:48:42;;;;;;;1.88;1.20;;;;;;;;;;4973403;28;20217;-82
2023/05/28 05:51:09;;;;;;;2.42;1.15;;;;;;;;;;4973256;28;20030;-81
2023/05/28 05:53:41;;;;;;;3.83;1.58;;;21.10;59.30;;;;;;4973212;28;20043;-81
2023/05/28 05:56:07;;;;;;;3.22;1.60;;;21.20;57.00;;;;;;4973335;28;20385;-81
2023/05/28 05:58:34;;;;;;;2.83;1.25;;;;;;;;;;4973222;28;20031;-81
2023/05/28 06:01:01;;;;;;;3.78;1.55;;;;;;;;;;4973456;28;20023;-78
2023/05/28 06:03:27;;;;;;;3.05;1.83;;;;;;;;;;4972721;28;20474;-81
2023/05/28 06:05:55;;;;;;;2.53;1.40;;;;;;;;;;4973139;28;20074;-80
2023/05/28 06:08:21;;;;;;;2.72;1.20;;;;;;;;;;4976136;28;20086;-81
2023/05/28 06:10:51;;;;;;;2.47;1.38;;;;;;;;;;4976810;28;20481;-81
2023/05/28 06:13:17;;;;;;;2.80;1.30;;;;;;;;;;4976647;28;20544;-81
2023/05/28 06:15:44;;;;;;;2.95;1.55;;;21.10;58.00;;;;;;4976657;28;20068;-81
2023/05/28 06:18:11;;;;;;;1.98;1.05;;;;;;;;;;4976716;28;20109;-81
2023/05/28 06:20:37;;;;;;;2.58;1.70;;;;;;;;;;4976511;28;20027;-78
2023/05/28 06:23:04;;;;;;;1.67;1.50;;;;;;;;;;4959210;28;20062;-79
2023/05/28 06:25:30;;;;;;;2.42;1.30;;;;;;;;;;4976809;28;20118;-79
2023/05/28 06:27:57;;;;;;;2.05;1.45;;;;;;;;;;4976425;28;20544;-79
2023/05/28 06:30:23;;;;;;;1.83;1.48;;;;;;;;;;4976777;28;20027;-79
2023/05/28 06:32:50;;;;;;;2.10;1.45;;;;;;;;;;4976614;28;20102;-79
2023/05/28 06:35:16;;;;;;;3.00;1.55;;;;;;;;;;4976324;28;20085;-79
2023/05/28 06:37:42;;;;;;;3.28;1.73;;;;;;;;;;4976620;28;20062;-79
2023/05/28 06:40:10;;;;;;;3.42;1.98;;;;;;;;;;4976600;28;20066;-79
2023/05/28 06:42:38;;;;;;;2.78;1.45;;;21.10;60.00;;;;;;4976501;28;20113;-79
2023/05/28 06:45:05;;;;;;;3.28;1.75;;;21.10;59.40;;;;;;4959230;28;20050;-79
2023/05/28 06:47:32;;;;;;;2.13;1.52;;;;;;;;;;4959349;28;20046;-79
2023/05/28 06:49:58;;;;;;;3.85;1.80;;;;;;;;;;4960091;28;20504;-79
2023/05/28 06:52:27;;;;;;;1.80;1.33;;;;;;;;;;4959760;28;20035;-79
2023/05/28 06:54:53;;;;;;;2.67;1.20;;;;;;;;;;4959607;28;20398;-79
2023/05/28 06:57:20;;;;;;;3.00;1.52;;;21.10;60.40;;;;;;4958779;28;20027;-79
2023/05/28 06:59:46;;;;;;;2.67;1.33;;;;;;;;;;4958683;28;20039;-79
2023/05/28 07:02:12;;;;;;;4.85;1.67;;;;;;;;;;4958897;28;20062;-79
2023/05/28 07:04:40;;;;;;;3.10;1.65;;;;;;;;;;4958734;28;20069;-79
2023/05/28 07:07:06;;;;;;;2.20;1.60;;;;;;;;;;4959356;28;20042;-78
2023/05/28 07:09:33;;;;;;;3.38;1.73;;;;;;;;;;4958998;28;20034;-78
2023/05/28 07:12:00;;;;;;;4.78;1.55;;;;;;;;;;4959196;28;20035;-77
2023/05/28 07:14:26;;;;;;;1.33;1.13;;;;;;;;;;4959075;28;20051;-77
2023/05/28 07:16:53;;;;;;;1.58;1.15;;;;;;;;;;4975741;28;20049;-77
2023/05/28 07:19:19;;;;;;;2.20;1.70;;;;;;;;;;4974752;28;20042;-77
2023/05/28 07:21:46;;;;;;;3.35;1.50;;;21.20;60.00;;;;;;4975649;28;20045;-77
2023/05/28 07:24:12;;;;;;;6.18;1.90;;;;;;;;;;4975577;28;20026;-77
2023/05/28 07:26:38;;;;;;;2.00;1.33;;;;;;;;;;4975657;28;20029;-74
2023/05/28 07:29:05;;;;;;;5.00;1.60;;;;;;;;;;4975614;28;20023;-77
2023/05/28 07:31:31;;;;;;;3.25;1.75;;;;;;;;;;4975509;28;20026;-75
2023/05/28 07:33:58;;;;;;;2.40;1.27;;;;;;;;;;4975850;28;20043;-79
2023/05/28 07:36:24;;;;;;;1.30;0.98;;;;;;;;;;4975872;28;20031;-81
2023/05/28 07:38:51;;;;;;;1.75;1.35;;;;;;;;;;4958489;28;20046;-75
2023/05/28 07:41:18;;;;;;;2.50;1.77;;;;;;;;;;4975310;28;20057;-78
2023/05/28 07:43:44;;;;;;;3.15;1.42;;;;;;;;;;4974950;28;20107;-79
2023/05/28 07:46:11;;;;;;;4.28;1.80;;;;;;;;;;4975352;28;20034;-80
2023/05/28 07:48:37;;;;;;;5.25;1.55;;;;;;;;;;4975204;28;20031;-80
2023/05/28 07:51:04;;;;;;;3.08;1.65;;;;;;;;;;4974918;28;20477;-78
2023/05/28 07:53:31;;;;;;;4.82;1.52;;;;;;;;;;4975224;28;20031;-77
2023/05/28 07:55:57;;;;;;;3.58;1.83;;;;;;;;;;4975067;28;20089;-80
2023/05/28 07:58:23;;;;;;;2.97;1.75;;;;;;;;;;4975205;28;20436;-79
2023/05/28 08:00:50;;;;;;;6.78;1.70;;;;;;;;;;4974807;28;20106;-77
2023/05/28 08:03:16;;;;;;;4.38;1.73;;;;;;;;;;4974938;28;20047;-77
2023/05/28 08:05:43;;;;;;;3.95;1.48;;;;;;;;;;4974939;28;20456;-79
2023/05/28 08:08:09;;;;;;;4.07;1.95;;;;;;;;;;4975041;28;20081;-81
2023/05/28 08:10:36;;;;;;;3.55;1.63;;;;;;;;;;4974863;28;20084;-82
2023/05/28 08:13:02;;;;;;;4.05;1.60;;;;;;;;;;4974390;28;20033;-78
2023/05/28 08:15:28;;;;;;;2.78;1.30;;;;;;;;;;4974684;28;20039;-72
2023/05/28 08:17:55;;;;;;;2.17;1.42;;;;;;;;;;4974188;28;20031;-79
2023/05/28 08:20:22;;;;;;;4.38;1.80;;;;;;;;;;4974677;28;20034;-78
2023/05/28 08:22:48;;;;;;;4.20;2.00;;;;;;;;;;4974918;28;20051;-76
2023/05/28 08:25:15;;;;;;;3.92;1.60;;;;;;;;;;4974301;28;20022;-76
2023/05/28 08:27:42;;;;;;;3.33;2.13;;;;;;;;;;4974390;28;20082;-78
2023/05/28 08:30:08;;;;;;;3.72;1.58;;;;;;;;;;4974275;28;20484;-76
2023/05/28 08:32:35;;;;;;;3.78;1.85;;;;;;;;;;4974504;28;20038;-77
2023/05/28 08:35:01;;;;;;;5.40;1.98;;;;;;;;;;4974217;28;20035;-76
2023/05/28 08:37:28;;;;;;;5.20;2.20;;;;;;;;;;4974598;28;20405;-77
2023/05/28 08:39:54;;;;;;;5.20;1.85;;;;;;;;;;4974351;28;20026;-76
2023/05/28 08:42:20;;;;;;;3.17;1.73;;;;;;;;;;4974250;28;20026;-76
2023/05/28 08:44:47;;;;;;;4.30;1.70;;;;;;;;;;4974380;28;20103;-76
2023/05/28 08:47:14;;;;;;;4.20;1.92;;;21.90;62.80;;;;;;4974020;28;20548;-77
2023/05/28 08:49:51;;;;;;;2.78;1.48;;;21.90;57.40;;;;;;4974353;28;20124;-77
2023/05/28 08:52:20;;;;;;;2.97;1.75;;;21.90;63.20;;;;;;4973965;28;20038;-77
2023/05/28 08:54:46;;;;;;;5.38;2.22;;;21.90;62.70;;;;;;4973780;28;20405;-77
2023/05/28 08:57:13;;;;;;;3.17;1.80;;;;;;;;;;4973675;28;20508;-77
2023/05/28 08:59:39;;;;;;;2.60;1.52;;;;;;;;;;4973829;28;20043;-77
2023/05/28 09:02:11;;;;;;;3.15;2.03;;;22.00;62.50;;;;;;4973953;28;20027;-77
2023/05/28 09:04:40;;;;;;;3.78;1.92;;;;;;;;;;4973688;28;20043;-78
2023/05/28 09:07:07;;;;;;;3.65;2.17;;;;;;;;;;4973811;28;20042;-79
2023/05/28 09:09:34;;;;;;;5.90;2.00;;;;;;;;;;4973484;28;20505;-79
2023/05/28 09:12:05;;;;;;;4.97;2.20;;;22.30;63.40;;;;;;4973756;28;20389;-78
2023/05/28 09:14:39;;;;;;;7.07;2.00;;;22.20;63.40;;;;;;4975573;28;20035;-79
2023/05/28 09:17:06;;;;;;;3.80;2.20;;;;;;;;;;4973781;28;20027;-77
2023/05/28 09:19:32;;;;;;;4.03;2.10;;;;;;;;;;4973907;28;20041;-79
2023/05/28 09:22:01;;;;;;;3.78;2.05;;;;;;;;;;4973870;28;20038;-79
2023/05/28 09:24:31;;;;;;;4.55;2.13;;;22.50;63.20;;;;;;4973797;28;20026;-79
2023/05/28 09:26:58;;;;;;;4.90;1.80;;;;;;;;;;4973548;28;20058;-79
2023/05/28 09:29:25;;;;;;;3.67;2.00;;;;;;;;;;4973528;28;20065;-79
2023/05/28 09:32:01;;;;;;;3.33;1.83;;;22.70;57.30;;;;;;4973644;28;20073;-79
2023/05/28 09:34:31;;;;;;;5.55;2.35;;;22.70;62.70;;;;;;4973518;28;20367;-79
2023/05/28 09:37:04;;;;;;;5.30;2.95;;;22.90;57.50;;;;;;4973281;28;20513;-78
2023/05/28 09:39:31;;;;;;;4.65;1.85;;;;;;;;;;4973486;28;20436;-79
2023/05/28 09:42:00;;;;;;;6.43;2.63;;;;;;;;;;4959393;28;20135;-78
2023/05/28 09:44:31;;;;;;;8.63;2.75;;;23.00;63.00;;;;;;4962954;28;20035;-79
2023/05/28 09:46:58;;;;;;;4.25;2.20;;;;;;;;;;4962489;28;20030;-78
2023/05/28 09:49:25;;;;;;;6.13;2.50;;;;;;;;;;4962400;28;20041;-79
2023/05/28 09:51:54;;;;;;;3.83;1.85;;;23.20;63.40;;;;;;4962424;28;20506;-79
2023/05/28 09:54:20;;;;;;;5.00;2.08;;;;;;;;;;4962639;28;20043;-79
2023/05/28 09:56:49;;;;;;;7.45;2.60;;;23.30;62.90;;;;;;4979667;28;20085;-79
2023/05/28 09:59:17;;;;;;;4.03;2.13;;;23.40;63.00;;;;;;4979736;28;20026;-79
2023/05/28 10:01:54;;;;;;;6.05;2.38;;;23.50;63.30;;;;;;4979493;28;20031;-79
2023/05/28 10:04:27;;;;;;;5.95;2.60;;;23.60;63.00;;;;;;4979251;28;20129;-79
2023/05/28 10:06:54;;;;;;;5.93;2.30;;;;;;;;;;4979706;28;20034;-79
2023/05/28 10:09:20;;;;;;;5.50;2.58;;;;;;;;;;4979479;28;20027;-79
2023/05/28 10:11:59;;;;;;;5.47;2.08;;;23.60;62.70;;;;;;4979475;28;20019;-78
2023/05/28 10:14:25;;;;;;;6.70;2.58;;;23.70;61.80;;;;;;4979312;28;20062;-79
2023/05/28 10:16:52;;;;;;;5.53;2.03;;;;;;;;;;4979668;28;20023;-78
2023/05/28 10:19:18;;;;;;;6.15;2.25;;;;;;;;;;4979710;28;20037;-76
2023/05/28 10:21:45;;;;;;;5.95;2.58;;;;;;;;;;4979505;28;20096;-79
2023/05/28 10:24:12;;;;;;;5.35;2.75;;;23.70;63.30;;;;;;4979230;28;20034;-78
2023/05/28 10:26:39;;;;;;;8.27;3.15;;;;;;;;;;4979365;28;20027;-77
2023/05/28 10:29:07;;;;;;;6.40;2.70;;;23.70;63.00;;;;;;4979196;28;20466;-81
2023/05/28 10:31:33;;;;;;;6.82;3.10;;;;;;;;;;4979096;28;20078;-78
2023/05/28 10:34:00;;;;;;;6.18;2.75;;;;;;;;;;4979147;28;20046;-77
2023/05/28 10:36:26;;;;;;;7.07;2.90;;;;;;;;;;4979519;28;20046;-77
2023/05/28 10:38:53;;;;;;;7.32;3.03;;;;;;;;;;4979479;28;20077;-78
2023/05/28 10:41:21;;;;;;;4.93;2.92;;;23.80;62.10;;;;;;4979108;28;20496;-80
2023/05/28 10:43:48;;;;;;;6.75;2.70;;;23.80;59.30;;;;;;4979384;28;20041;-79
2023/05/28 10:46:19;;;;;;;6.10;3.22;;;23.90;62.10;;;;;;4978976;28;20541;-77
2023/05/28 10:49:10;;;;;;;8.70;2.88;;;24.00;56.80;;;;;;4979292;28;20109;-80
2023/05/28 10:52:00;;;;;;;5.68;2.90;;;24.00;56.70;;;;;;4978990;28;20031;-77
2023/05/28 10:54:29;;;;;;;7.05;3.65;;;24.00;56.40;;;;;;4976454;28;20038;-80
2023/05/28 10:57:08;;;;;;;6.57;2.85;;;24.00;56.70;;;;;;4976379;28;20038;-78
2023/05/28 10:59:46;;;;;;;9.65;4.07;;;24.10;56.50;;;;;;4975974;28;20053;-79
2023/05/28 11:02:26;;;;;;;6.55;2.83;;;24.10;61.80;;;;;;4976119;28;20035;-86
2023/05/28 11:04:59;;;;;;;5.40;2.80;;;24.10;61.90;;;;;;4975823;28;20050;-79
2023/05/28 11:07:33;;;;;;;6.10;2.65;;;24.20;56.50;;;;;;4975859;28;20026;-80
2023/05/28 11:10:00;;;;;;;4.18;2.55;;;24.20;59.40;;;;;;4976077;28;20015;-78
2023/05/28 11:12:27;;;;;;;8.32;3.40;;;24.30;60.80;;;;;;4975746;28;20019;-79
2023/05/28 11:14:54;;;;;;;9.50;3.72;;;;;;;;;;4977025;28;20039;-78
2023/05/28 11:17:20;;;;;;;6.40;3.10;;;;;;;;;;4975638;28;20044;-78
2023/05/28 11:19:51;;;;;;;6.35;3.13;;;24.60;55.90;;;;;;4975832;28;20038;-82
2023/05/28 11:22:19;;;;;;;5.45;3.35;;;24.60;61.20;;;;;;4975677;28;20033;-89
2023/05/28 11:24:54;;;;;;;7.18;3.25;;;24.70;55.70;;;;;;4976006;28;20492;-82
2023/05/28 11:27:23;;;;;;;12.93;4.15;;;24.70;55.30;;;;;;4958312;28;20465;-84
2023/05/28 11:29:51;;;;;;;10.00;3.17;;;24.80;60.70;;;;;;4975284;28;20105;-80
2023/05/28 11:32:20;;;;;;;8.20;3.28;;;24.90;55.60;;;;;;4975782;28;20027;-87
2023/05/28 11:34:50;;;;;;;6.17;3.37;;;25.00;55.00;;;;;;4975294;28;20035;-85
2023/05/28 11:37:16;;;;;;;5.13;2.70;;;;;;;;;;4975640;28;20033;-82
2023/05/28 11:39:50;;;;;;;8.23;3.05;;;25.20;54.80;;;;;;4975571;28;20033;-78
2023/05/28 11:42:19;;;;;;;9.55;3.40;;;25.30;59.90;;;;;;4975472;28;20386;-87
2023/05/28 11:44:47;;;;;;;6.60;3.08;;;25.40;59.90;;;;;;4975528;28;20181;-82
2023/05/28 11:47:14;;;;;;;8.07;3.25;;;;;;;;;;4975356;28;20101;-87
2023/05/28 11:49:40;;;;;;;10.40;3.50;;;;;;;;;;4975232;28;20027;-83
2023/05/28 11:52:11;;;;;;;6.63;2.72;;;25.60;54.60;;;;;;4975146;28;20030;-88
2023/05/28 11:54:41;;;;;;;6.28;2.88;;;25.60;57.70;;;;;;4975493;28;20410;-88
2023/05/28 11:57:08;;;;;;;5.93;2.72;;;;;;;;;;4975389;28;20035;-83
2023/05/28 11:59:35;;;;;;;10.50;3.40;;;;;;;;;;4974805;28;20023;-86
2023/05/28 12:02:15;;;;;;;6.43;3.40;;;25.60;54.70;;;;;;4975010;28;20023;-86
2023/05/28 12:05:02;;;;;;;7.60;3.67;;;25.80;60.00;;;;;;4974167;28;20074;-81
2023/05/28 12:07:29;;;;;;;8.05;3.33;;;25.80;57.90;;;;;;4974706;28;20033;-81
2023/05/28 12:10:05;;;;;;;8.63;3.40;;;26.00;60.00;;;;;;4974384;28;20031;-81
2023/05/28 12:12:32;;;;;;;5.43;3.20;;;;;;;;;;4974424;28;20019;-81
2023/05/28 12:14:59;;;;;;;8.95;3.35;;;;;;;;;;4974294;28;20054;-81
2023/05/28 12:17:25;;;;;;;6.63;3.58;;;;;;;;;;4974733;28;20094;-82
2023/05/28 12:19:52;;;;;;;6.75;3.15;;;;;;;;;;4974313;28;20073;-81
2023/05/28 12:22:18;;;;;;;4.70;3.05;;;;;;;;;;4974437;28;20054;-81
2023/05/28 12:24:50;;;;;;;6.20;3.13;;;26.50;53.60;;;;;;4974980;28;20042;-82
2023/05/28 12:27:17;;;;;;;8.07;3.42;;;;;;;;;;4974975;28;20022;-81
2023/05/28 12:29:43;;;;;;;7.05;3.40;;;26.50;58.50;;;;;;4957343;28;20047;-81
2023/05/28 12:32:09;;;;;;;6.78;3.65;;;;;;;;;;4974356;28;20018;-81
2023/05/28 12:34:36;;;;;;;7.97;3.63;;;;;;;;;;4974046;28;20505;-81
2023/05/28 12:37:03;;;;;;;6.82;3.03;;;;;;;;;;4974341;28;20033;-81
2023/05/28 12:39:30;;;;;;;8.75;3.90;;;;;;;;;;4974543;28;20367;-81
2023/05/28 12:41:57;;;;;;;4.22;2.70;;;;;;;;;;4974691;28;20027;-81
2023/05/28 12:44:23;;;;;;;6.95;3.13;;;;;;;;;;4974287;28;20031;-81
2023/05/28 12:46:50;;;;;;;5.45;3.45;;;;;;;;;;4974604;28;20085;-82
2023/05/28 12:49:16;;;;;;;6.03;3.08;;;;;;;;;;4974218;28;20027;-81
2023/05/28 12:51:43;;;;;;;8.32;3.47;;;;;;;;;;4974294;28;20034;-81
2023/05/28 12:54:09;;;;;;;6.97;3.10;;;;;;;;;;4974096;28;20061;-81
2023/05/28 12:56:36;;;;;;;8.02;3.42;;;;;;;;;;4973800;28;20029;-81
2023/05/28 12:59:02;;;;;;;6.60;2.70;;;;;;;;;;4974019;28;20038;-80
2023/05/28 13:01:28;;;;;;;5.93;3.47;;;;;;;;;;4973776;28;20027;-80
2023/05/28 13:03:54;;;;;;;10.07;3.40;;;;;;;;;;4973725;28;20084;-80
2023/05/28 13:06:20;;;;;;;6.88;2.95;;;;;;;;;;4973774;28;20023;-82
2023/05/28 13:08:46;;;;;;;6.60;3.17;;;;;;;;;;4973737;28;20512;-81
2023/05/28 13:11:12;;;;;;;7.00;3.35;;;;;;;;;;4973847;28;20027;-83
2023/05/28 13:13:39;;;;;;;5.88;3.03;;;;;;;;;;4973682;28;20026;-86
2023/05/28 13:16:06;;;;;;;6.20;3.00;;;;;;;;;;4973446;28;20035;-89
2023/05/28 13:18:32;;;;;;;6.40;3.40;;;;;;;;;;4974475;28;20127;-90
2023/05/28 13:20:58;;;;;;;4.15;3.25;;;;;;;;;;4973785;28;20132;-87
2023/05/28 13:23:23;;;;;;;5.88;3.15;;;;;;;;;;4974334;28;20103;-85
2023/05/28 13:25:50;;;;;;;7.47;3.47;;;;;;;;;;4973542;28;20125;-82
2023/05/28 13:28:16;;;;;;;6.88;3.05;;;;;;;;;;4973595;28;20023;-89
2023/05/28 13:30:42;;;;;;;7.45;3.72;;;;;;;;;;4973958;28;20105;-89
2023/05/28 13:33:08;;;;;;;6.55;3.53;;;;;;;;;;4974061;28;20403;-88
2023/05/28 13:35:34;;;;;;;9.25;3.28;;;;;;;;;;4973423;28;20066;-87
2023/05/28 13:38:01;;;;;;;8.68;3.40;;;;;;;;;;4973425;28;20027;-87
2023/05/28 13:40:28;;;;;;;8.35;3.50;;;;;;;;;;4973698;28;20073;-89
2023/05/28 13:42:54;;;;;;;7.50;3.78;;;;;;;;;;4973915;28;20090;-87
2023/05/28 13:45:21;;;;;;;10.70;3.78;;;;;;;;;;4973624;28;20470;-86
2023/05/28 13:47:47;;;;;;;7.25;3.85;;;;;;;;;;4973672;28;20034;-83
2023/05/28 13:50:14;;;;;;;7.53;3.80;;;;;;;;;;4973128;28;20035;-86
2023/05/28 13:52:41;;;;;;;6.57;3.33;;;;;;;;;;4973217;28;20027;-87
2023/05/28 13:55:07;;;;;;;6.88;3.97;;;;;;;;;;4973453;28;20046;-87
2023/05/28 13:57:34;;;;;;;4.78;3.03;;;;;;;;;;4973480;28;20090;-87
2023/05/28 14:00:06;;;;;;;6.32;3.40;;;;;;;;;;4973280;28;20019;-75
2023/05/28 14:02:32;;;;;;;11.45;4.32;;;;;;;;;;4973254;28;20073;-75
2023/05/28 14:04:58;;;;;;;5.45;3.08;;;;;;;;;;4972964;28;20054;-75
2023/05/28 14:07:25;;;;;;;4.95;2.83;;;;;;;;;;4972986;28;20117;-75
2023/05/28 14:09:51;;;;;;;7.03;3.72;;;;;;;;;;4973106;28;20027;-77
2023/05/28 14:12:18;;;;;;;5.28;3.70;;;;;;;;;;4972735;28;20474;-76